sensor_id;sensor_type;location;lat;lon;timestamp;P1;durP1;ratioP1;P2;durP2;ratioP2
24030;SDS011;12240;51.142;22.486;2024-02-14T00:02:46;19.30;;;5.00;;
24030;SDS011;12240;51.142;22.486;2024-02-14T00:05:16;9.10;;;2.80;;
24030;SDS011;12240;51.142;22.486;2024-02-14T00:07:44;16.60;;;4.20;;
24030;SDS011;12240;51.142;22.486;2024-02-14T00:10:11;16.50;;;4.30;;
24030;SDS011;12240;51.142;22.486;2024-02-14T00:12:38;8.90;;;3.20;;
24030;SDS011;12240;51.142;22.486;2024-02-14T00:15:05;14.50;;;4.60;;
24030;SDS011;12240;51.142;22.486;2024-02-14T00:17:34;19.80;;;5.30;;
24030;SDS011;12240;51.142;22.486;2024-02-14T00:20:02;18.90;;;5.70;;
24030;SDS011;12240;51.142;22.486;2024-02-14T00:22:30;25.40;;;7.70;;
24030;SDS011;12240;51.142;22.486;2024-02-14T00:24:57;18.20;;;6.40;;
24030;SDS011;12240;51.142;22.486;2024-02-14T00:27:24;40.00;;;13.40;;
24030;SDS011;12240;51.142;22.486;2024-02-14T00:29:53;26.80;;;9.00;;
24030;SDS011;12240;51.142;22.486;2024-02-14T00:32:21;26.60;;;7.60;;
24030;SDS011;12240;51.142;22.486;2024-02-14T00:34:49;22.20;;;6.80;;
24030;SDS011;12240;51.142;22.486;2024-02-14T00:37:17;20.70;;;6.40;;
24030;SDS011;12240;51.142;22.486;2024-02-14T00:39:45;17.90;;;6.50;;
24030;SDS011;12240;51.142;22.486;2024-02-14T00:42:12;23.10;;;7.50;;
24030;SDS011;12240;51.142;22.486;2024-02-14T00:44:38;17.10;;;5.90;;
24030;SDS011;12240;51.142;22.486;2024-02-14T00:47:05;19.20;;;5.80;;
24030;SDS011;12240;51.142;22.486;2024-02-14T00:49:34;17.30;;;6.30;;
24030;SDS011;12240;51.142;22.486;2024-02-14T00:52:02;15.70;;;6.10;;
24030;SDS011;12240;51.142;22.486;2024-02-14T00:54:29;16.20;;;6.20;;
24030;SDS011;12240;51.142;22.486;2024-02-14T00:56:56;16.30;;;6.50;;
24030;SDS011;12240;51.142;22.486;2024-02-14T00:59:23;17.50;;;7.80;;
24030;SDS011;12240;51.142;22.486;2024-02-14T01:01:51;18.00;;;6.80;;
24030;SDS011;12240;51.142;22.486;2024-02-14T01:04:18;14.00;;;6.50;;
24030;SDS011;12240;51.142;22.486;2024-02-14T01:06:44;16.80;;;6.90;;
24030;SDS011;12240;51.142;22.486;2024-02-14T01:09:11;21.40;;;7.90;;
24030;SDS011;12240;51.142;22.486;2024-02-14T01:11:38;16.10;;;6.90;;
24030;SDS011;12240;51.142;22.486;2024-02-14T01:14:05;15.20;;;6.30;;
24030;SDS011;12240;51.142;22.486;2024-02-14T01:16:32;16.90;;;7.30;;
24030;SDS011;12240;51.142;22.486;2024-02-14T01:18:59;16.70;;;7.00;;
24030;SDS011;12240;51.142;22.486;2024-02-14T01:21:26;22.60;;;8.20;;
24030;SDS011;12240;51.142;22.486;2024-02-14T01:23:53;15.90;;;7.30;;
24030;SDS011;12240;51.142;22.486;2024-02-14T01:26:19;32.30;;;11.60;;
24030;SDS011;12240;51.142;22.486;2024-02-14T01:28:47;21.20;;;9.60;;
24030;SDS011;12240;51.142;22.486;2024-02-14T01:31:14;26.20;;;9.20;;
24030;SDS011;12240;51.142;22.486;2024-02-14T01:33:41;25.70;;;8.80;;
24030;SDS011;12240;51.142;22.486;2024-02-14T01:36:08;26.20;;;9.50;;
24030;SDS011;12240;51.142;22.486;2024-02-14T01:38:35;18.80;;;7.10;;
24030;SDS011;12240;51.142;22.486;2024-02-14T01:41:03;17.40;;;7.00;;
24030;SDS011;12240;51.142;22.486;2024-02-14T01:43:30;17.90;;;6.40;;
24030;SDS011;12240;51.142;22.486;2024-02-14T01:45:58;16.60;;;7.10;;
24030;SDS011;12240;51.142;22.486;2024-02-14T01:48:33;14.10;;;6.70;;
24030;SDS011;12240;51.142;22.486;2024-02-14T01:51:01;14.90;;;6.40;;
24030;SDS011;12240;51.142;22.486;2024-02-14T01:53:30;19.60;;;6.70;;
24030;SDS011;12240;51.142;22.486;2024-02-14T01:55:58;16.60;;;6.60;;
24030;SDS011;12240;51.142;22.486;2024-02-14T01:58:26;18.90;;;6.30;;
24030;SDS011;12240;51.142;22.486;2024-02-14T02:00:56;18.60;;;6.10;;
24030;SDS011;12240;51.142;22.486;2024-02-14T02:03:26;15.30;;;5.90;;
24030;SDS011;12240;51.142;22.486;2024-02-14T02:05:54;13.40;;;6.30;;
24030;SDS011;12240;51.142;22.486;2024-02-14T02:08:22;15.70;;;6.00;;
24030;SDS011;12240;51.142;22.486;2024-02-14T02:10:48;14.20;;;6.00;;
24030;SDS011;12240;51.142;22.486;2024-02-14T02:13:16;17.70;;;5.80;;
24030;SDS011;12240;51.142;22.486;2024-02-14T02:15:43;14.40;;;5.80;;
24030;SDS011;12240;51.142;22.486;2024-02-14T02:18:13;14.60;;;6.40;;
24030;SDS011;12240;51.142;22.486;2024-02-14T02:20:41;17.30;;;5.80;;
24030;SDS011;12240;51.142;22.486;2024-02-14T02:23:11;16.70;;;5.90;;
24030;SDS011;12240;51.142;22.486;2024-02-14T02:25:44;16.60;;;5.20;;
24030;SDS011;12240;51.142;22.486;2024-02-14T02:28:10;22.60;;;5.80;;
24030;SDS011;12240;51.142;22.486;2024-02-14T02:30:37;14.40;;;5.90;;
24030;SDS011;12240;51.142;22.486;2024-02-14T02:33:05;15.30;;;5.70;;
24030;SDS011;12240;51.142;22.486;2024-02-14T02:35:34;17.10;;;6.60;;
24030;SDS011;12240;51.142;22.486;2024-02-14T02:38:01;13.50;;;6.10;;
24030;SDS011;12240;51.142;22.486;2024-02-14T02:40:28;19.50;;;6.40;;
24030;SDS011;12240;51.142;22.486;2024-02-14T02:42:54;18.90;;;6.20;;
24030;SDS011;12240;51.142;22.486;2024-02-14T02:45:21;15.40;;;5.70;;
24030;SDS011;12240;51.142;22.486;2024-02-14T02:47:49;12.90;;;6.20;;
24030;SDS011;12240;51.142;22.486;2024-02-14T02:50:19;13.90;;;5.70;;
24030;SDS011;12240;51.142;22.486;2024-02-14T02:52:48;17.70;;;5.70;;
24030;SDS011;12240;51.142;22.486;2024-02-14T02:55:15;18.70;;;5.90;;
24030;SDS011;12240;51.142;22.486;2024-02-14T02:57:45;17.80;;;5.50;;
24030;SDS011;12240;51.142;22.486;2024-02-14T03:03:09;20.00;;;6.50;;
24030;SDS011;12240;51.142;22.486;2024-02-14T03:05:37;17.20;;;6.30;;
24030;SDS011;12240;51.142;22.486;2024-02-14T03:08:05;16.00;;;6.00;;
24030;SDS011;12240;51.142;22.486;2024-02-14T03:10:33;18.40;;;6.00;;
24030;SDS011;12240;51.142;22.486;2024-02-14T03:13:00;21.20;;;6.10;;
24030;SDS011;12240;51.142;22.486;2024-02-14T03:15:27;18.40;;;6.20;;
24030;SDS011;12240;51.142;22.486;2024-02-14T03:17:54;18.00;;;6.90;;
24030;SDS011;12240;51.142;22.486;2024-02-14T03:20:21;16.00;;;6.90;;
24030;SDS011;12240;51.142;22.486;2024-02-14T03:22:47;18.90;;;7.00;;
24030;SDS011;12240;51.142;22.486;2024-02-14T03:25:18;19.50;;;6.40;;
24030;SDS011;12240;51.142;22.486;2024-02-14T03:27:46;19.80;;;6.90;;
24030;SDS011;12240;51.142;22.486;2024-02-14T03:30:16;21.60;;;6.90;;
24030;SDS011;12240;51.142;22.486;2024-02-14T03:32:44;21.90;;;6.70;;
24030;SDS011;12240;51.142;22.486;2024-02-14T03:35:12;14.40;;;6.40;;
24030;SDS011;12240;51.142;22.486;2024-02-14T03:37:40;17.90;;;6.60;;
24030;SDS011;12240;51.142;22.486;2024-02-14T03:40:08;19.00;;;7.30;;
24030;SDS011;12240;51.142;22.486;2024-02-14T03:42:36;19.10;;;6.70;;
24030;SDS011;12240;51.142;22.486;2024-02-14T03:45:08;20.20;;;7.20;;
24030;SDS011;12240;51.142;22.486;2024-02-14T03:47:36;16.80;;;7.70;;
24030;SDS011;12240;51.142;22.486;2024-02-14T03:50:07;17.60;;;6.90;;
24030;SDS011;12240;51.142;22.486;2024-02-14T03:52:35;16.00;;;7.90;;
24030;SDS011;12240;51.142;22.486;2024-02-14T03:55:02;18.70;;;7.70;;
24030;SDS011;12240;51.142;22.486;2024-02-14T03:57:29;23.50;;;8.10;;
24030;SDS011;12240;51.142;22.486;2024-02-14T03:59:58;15.30;;;7.40;;
24030;SDS011;12240;51.142;22.486;2024-02-14T12:02:37;10.40;;;2.90;;
24030;SDS011;12240;51.142;22.486;2024-02-14T12:05:04;4.60;;;2.10;;
24030;SDS011;12240;51.142;22.486;2024-02-14T12:07:32;7.40;;;2.40;;
24030;SDS011;12240;51.142;22.486;2024-02-14T12:09:59;5.60;;;2.20;;
24030;SDS011;12240;51.142;22.486;2024-02-14T12:12:25;7.80;;;2.50;;
24030;SDS011;12240;51.142;22.486;2024-02-14T12:14:52;4.90;;;2.10;;
24030;SDS011;12240;51.142;22.486;2024-02-14T12:17:20;8.40;;;2.30;;
24030;SDS011;12240;51.142;22.486;2024-02-14T12:19:48;6.80;;;2.70;;
24030;SDS011;12240;51.142;22.486;2024-02-14T12:22:16;5.70;;;2.10;;
24030;SDS011;12240;51.142;22.486;2024-02-14T12:24:46;4.90;;;2.00;;
24030;SDS011;12240;51.142;22.486;2024-02-14T12:27:16;4.60;;;1.80;;
24030;SDS011;12240;51.142;22.486;2024-02-14T12:29:47;8.40;;;2.50;;
24030;SDS011;12240;51.142;22.486;2024-02-14T12:32:16;7.90;;;2.50;;
24030;SDS011;12240;51.142;22.486;2024-02-14T12:34:44;5.30;;;2.20;;
24030;SDS011;12240;51.142;22.486;2024-02-14T12:37:11;7.10;;;2.50;;
24030;SDS011;12240;51.142;22.486;2024-02-14T12:39:38;5.80;;;2.00;;
24030;SDS011;12240;51.142;22.486;2024-02-14T12:42:07;7.30;;;2.50;;
24030;SDS011;12240;51.142;22.486;2024-02-14T12:44:33;8.70;;;2.40;;
24030;SDS011;12240;51.142;22.486;2024-02-14T12:47:00;10.50;;;3.10;;
24030;SDS011;12240;51.142;22.486;2024-02-14T12:49:27;4.90;;;2.20;;
24030;SDS011;12240;51.142;22.486;2024-02-14T12:51:54;5.50;;;2.20;;
24030;SDS011;12240;51.142;22.486;2024-02-14T12:54:23;5.60;;;2.30;;
24030;SDS011;12240;51.142;22.486;2024-02-14T12:56:51;9.60;;;2.10;;
24030;SDS011;12240;51.142;22.486;2024-02-14T12:59:19;8.20;;;2.50;;
24030;SDS011;12240;51.142;22.486;2024-02-14T13:01:46;7.90;;;2.30;;
24030;SDS011;12240;51.142;22.486;2024-02-14T13:04:14;5.00;;;2.20;;
24030;SDS011;12240;51.142;22.486;2024-02-14T13:06:43;7.30;;;2.50;;
24030;SDS011;12240;51.142;22.486;2024-02-14T13:09:09;5.70;;;2.30;;
24030;SDS011;12240;51.142;22.486;2024-02-14T13:11:40;7.80;;;2.50;;
24030;SDS011;12240;51.142;22.486;2024-02-14T13:14:09;7.10;;;2.40;;
24030;SDS011;12240;51.142;22.486;2024-02-14T13:16:35;7.90;;;2.40;;
24030;SDS011;12240;51.142;22.486;2024-02-14T13:19:02;8.00;;;2.10;;
24030;SDS011;12240;51.142;22.486;2024-02-14T13:21:30;6.30;;;2.00;;
24030;SDS011;12240;51.142;22.486;2024-02-14T13:23:56;6.00;;;2.70;;
24030;SDS011;12240;51.142;22.486;2024-02-14T13:26:23;8.80;;;2.40;;
24030;SDS011;12240;51.142;22.486;2024-02-14T13:28:50;6.30;;;2.00;;
24030;SDS011;12240;51.142;22.486;2024-02-14T13:31:17;6.10;;;2.50;;
24030;SDS011;12240;51.142;22.486;2024-02-14T13:33:44;9.30;;;2.30;;
24030;SDS011;12240;51.142;22.486;2024-02-14T13:36:11;6.00;;;2.20;;
24030;SDS011;12240;51.142;22.486;2024-02-14T13:38:38;5.10;;;2.20;;
24030;SDS011;12240;51.142;22.486;2024-02-14T13:41:05;9.40;;;2.80;;
24030;SDS011;12240;51.142;22.486;2024-02-14T13:43:31;5.60;;;2.30;;
24030;SDS011;12240;51.142;22.486;2024-02-14T13:45:58;6.40;;;2.80;;
24030;SDS011;12240;51.142;22.486;2024-02-14T13:48:25;8.60;;;2.20;;
24030;SDS011;12240;51.142;22.486;2024-02-14T13:50:52;6.40;;;2.50;;
24030;SDS011;12240;51.142;22.486;2024-02-14T13:53:19;6.20;;;2.40;;
24030;SDS011;12240;51.142;22.486;2024-02-14T13:55:49;6.20;;;2.70;;
24030;SDS011;12240;51.142;22.486;2024-02-14T13:58:18;6.80;;;2.60;;
24030;SDS011;12240;51.142;22.486;2024-02-14T14:00:45;9.30;;;2.60;;
24030;SDS011;12240;51.142;22.486;2024-02-14T14:03:12;8.30;;;2.60;;
24030;SDS011;12240;51.142;22.486;2024-02-14T14:05:39;6.80;;;3.00;;
24030;SDS011;12240;51.142;22.486;2024-02-14T14:08:06;9.90;;;2.50;;
24030;SDS011;12240;51.142;22.486;2024-02-14T14:10:34;9.10;;;3.00;;
24030;SDS011;12240;51.142;22.486;2024-02-14T14:13:00;7.90;;;2.60;;
24030;SDS011;12240;51.142;22.486;2024-02-14T14:15:27;6.50;;;2.30;;
24030;SDS011;12240;51.142;22.486;2024-02-14T14:17:55;7.90;;;2.90;;
24030;SDS011;12240;51.142;22.486;2024-02-14T14:20:24;6.30;;;2.40;;
24030;SDS011;12240;51.142;22.486;2024-02-14T14:22:51;9.50;;;2.90;;
24030;SDS011;12240;51.142;22.486;2024-02-14T14:25:18;6.50;;;2.50;;
24030;SDS011;12240;51.142;22.486;2024-02-14T14:27:45;5.90;;;2.40;;
24030;SDS011;12240;51.142;22.486;2024-02-14T14:30:12;6.60;;;2.80;;
24030;SDS011;12240;51.142;22.486;2024-02-14T14:32:40;6.70;;;2.90;;
24030;SDS011;12240;51.142;22.486;2024-02-14T14:35:11;8.70;;;2.80;;
24030;SDS011;12240;51.142;22.486;2024-02-14T14:37:38;8.60;;;2.70;;
24030;SDS011;12240;51.142;22.486;2024-02-14T14:40:05;5.60;;;2.80;;
24030;SDS011;12240;51.142;22.486;2024-02-14T14:42:35;7.90;;;2.90;;
24030;SDS011;12240;51.142;22.486;2024-02-14T14:45:02;9.00;;;2.80;;
24030;SDS011;12240;51.142;22.486;2024-02-14T14:47:30;7.80;;;2.40;;
24030;SDS011;12240;51.142;22.486;2024-02-14T14:49:57;6.40;;;3.00;;
24030;SDS011;12240;51.142;22.486;2024-02-14T14:52:23;8.40;;;3.60;;
24030;SDS011;12240;51.142;22.486;2024-02-14T14:54:50;9.90;;;3.80;;
24030;SDS011;12240;51.142;22.486;2024-02-14T14:57:17;7.10;;;2.80;;
24030;SDS011;12240;51.142;22.486;2024-02-14T14:59:44;8.00;;;3.00;;
24030;SDS011;12240;51.142;22.486;2024-02-14T15:02:11;9.60;;;2.80;;
24030;SDS011;12240;51.142;22.486;2024-02-14T15:04:37;7.40;;;2.80;;
24030;SDS011;12240;51.142;22.486;2024-02-14T15:07:06;7.00;;;3.00;;
24030;SDS011;12240;51.142;22.486;2024-02-14T15:09:33;7.50;;;2.80;;
24030;SDS011;12240;51.142;22.486;2024-02-14T15:12:03;6.00;;;2.80;;
24030;SDS011;12240;51.142;22.486;2024-02-14T15:14:31;9.20;;;3.30;;
24030;SDS011;12240;51.142;22.486;2024-02-14T15:16:58;10.30;;;3.50;;
24030;SDS011;12240;51.142;22.486;2024-02-14T15:19:25;7.10;;;3.20;;
24030;SDS011;12240;51.142;22.486;2024-02-14T15:21:52;7.90;;;2.90;;
24030;SDS011;12240;51.142;22.486;2024-02-14T15:24:20;7.10;;;2.60;;
24030;SDS011;12240;51.142;22.486;2024-02-14T15:26:47;6.90;;;3.00;;
24030;SDS011;12240;51.142;22.486;2024-02-14T15:29:17;7.00;;;2.90;;
24030;SDS011;12240;51.142;22.486;2024-02-14T15:32:04;9.10;;;3.40;;
24030;SDS011;12240;51.142;22.486;2024-02-14T15:34:49;7.90;;;3.50;;
24030;SDS011;12240;51.142;22.486;2024-02-14T15:37:17;12.20;;;5.10;;
24030;SDS011;12240;51.142;22.486;2024-02-14T15:39:44;19.60;;;9.80;;
24030;SDS011;12240;51.142;22.486;2024-02-14T15:42:11;21.30;;;10.70;;
24030;SDS011;12240;51.142;22.486;2024-02-14T15:44:38;28.00;;;11.60;;
24030;SDS011;12240;51.142;22.486;2024-02-14T15:47:05;55.90;;;21.00;;
24030;SDS011;12240;51.142;22.486;2024-02-14T15:49:34;27.30;;;10.30;;
24030;SDS011;12240;51.142;22.486;2024-02-14T15:52:02;15.40;;;6.50;;
24030;SDS011;12240;51.142;22.486;2024-02-14T15:54:29;23.00;;;8.70;;
24030;SDS011;12240;51.142;22.486;2024-02-14T15:56:57;21.40;;;9.40;;
24030;SDS011;12240;51.142;22.486;2024-02-14T15:59:24;21.80;;;9.20;;
24030;SDS011;12240;51.142;22.486;2024-02-14T16:01:51;22.00;;;9.10;;
24030;SDS011;12240;51.142;22.486;2024-02-14T16:04:18;26.60;;;10.10;;
24030;SDS011;12240;51.142;22.486;2024-02-14T16:06:45;20.30;;;7.90;;
24030;SDS011;12240;51.142;22.486;2024-02-14T16:09:12;16.80;;;7.00;;
24030;SDS011;12240;51.142;22.486;2024-02-14T16:11:39;18.60;;;8.00;;
24030;SDS011;12240;51.142;22.486;2024-02-14T16:14:06;19.20;;;7.90;;
24030;SDS011;12240;51.142;22.486;2024-02-14T16:16:33;18.90;;;8.00;;
24030;SDS011;12240;51.142;22.486;2024-02-14T16:18:59;21.20;;;8.00;;
24030;SDS011;12240;51.142;22.486;2024-02-14T16:21:27;17.40;;;7.40;;
24030;SDS011;12240;51.142;22.486;2024-02-14T16:23:54;22.10;;;7.90;;
24030;SDS011;12240;51.142;22.486;2024-02-14T16:26:21;28.10;;;12.10;;
24030;SDS011;12240;51.142;22.486;2024-02-14T16:28:48;35.40;;;16.20;;
24030;SDS011;12240;51.142;22.486;2024-02-14T16:31:14;56.40;;;21.40;;
24030;SDS011;12240;51.142;22.486;2024-02-14T16:33:41;46.10;;;18.80;;
24030;SDS011;12240;51.142;22.486;2024-02-14T16:36:09;77.50;;;31.30;;
24030;SDS011;12240;51.142;22.486;2024-02-14T16:38:36;160.10;;;74.20;;
24030;SDS011;12240;51.142;22.486;2024-02-14T16:41:03;41.20;;;18.20;;
24030;SDS011;12240;51.142;22.486;2024-02-14T16:43:30;78.50;;;32.10;;
24030;SDS011;12240;51.142;22.486;2024-02-14T16:45:57;39.90;;;17.70;;
24030;SDS011;12240;51.142;22.486;2024-02-14T16:48:24;64.40;;;27.40;;
24030;SDS011;12240;51.142;22.486;2024-02-14T16:50:51;61.30;;;26.50;;
24030;SDS011;12240;51.142;22.486;2024-02-14T16:53:19;52.00;;;21.70;;
24030;SDS011;12240;51.142;22.486;2024-02-14T16:55:46;48.50;;;21.20;;
24030;SDS011;12240;51.142;22.486;2024-02-14T16:58:13;63.50;;;25.10;;
24030;SDS011;12240;51.142;22.486;2024-02-14T17:00:40;52.10;;;22.10;;
24030;SDS011;12240;51.142;22.486;2024-02-14T17:03:07;61.00;;;23.10;;
24030;SDS011;12240;51.142;22.486;2024-02-14T17:05:42;56.40;;;22.50;;
24030;SDS011;12240;51.142;22.486;2024-02-14T17:08:09;79.30;;;29.40;;
24030;SDS011;12240;51.142;22.486;2024-02-14T17:10:36;77.00;;;34.00;;
24030;SDS011;12240;51.142;22.486;2024-02-14T17:13:03;84.80;;;31.50;;
24030;SDS011;12240;51.142;22.486;2024-02-14T17:15:30;93.70;;;34.60;;
24030;SDS011;12240;51.142;22.486;2024-02-14T17:17:57;100.30;;;36.70;;
24030;SDS011;12240;51.142;22.486;2024-02-14T17:20:24;91.30;;;33.50;;
24030;SDS011;12240;51.142;22.486;2024-02-14T17:22:51;90.20;;;31.30;;
24030;SDS011;12240;51.142;22.486;2024-02-14T17:25:19;77.90;;;30.20;;
24030;SDS011;12240;51.142;22.486;2024-02-14T17:27:46;84.80;;;28.90;;
24030;SDS011;12240;51.142;22.486;2024-02-14T17:30:13;63.10;;;23.30;;
24030;SDS011;12240;51.142;22.486;2024-02-14T17:32:41;59.40;;;23.40;;
24030;SDS011;12240;51.142;22.486;2024-02-14T17:35:15;89.50;;;30.00;;
24030;SDS011;12240;51.142;22.486;2024-02-14T17:37:42;99.40;;;31.60;;
24030;SDS011;12240;51.142;22.486;2024-02-14T17:40:09;126.20;;;40.70;;
24030;SDS011;12240;51.142;22.486;2024-02-14T17:42:36;111.30;;;38.20;;
24030;SDS011;12240;51.142;22.486;2024-02-14T17:45:05;114.30;;;40.00;;
24030;SDS011;12240;51.142;22.486;2024-02-14T17:47:33;95.10;;;33.70;;
24030;SDS011;12240;51.142;22.486;2024-02-14T17:50:01;103.70;;;38.30;;
24030;SDS011;12240;51.142;22.486;2024-02-14T17:52:29;83.90;;;32.70;;
24030;SDS011;12240;51.142;22.486;2024-02-14T17:54:56;98.10;;;37.70;;
24030;SDS011;12240;51.142;22.486;2024-02-14T17:57:23;109.60;;;38.90;;
24030;SDS011;12240;51.142;22.486;2024-02-14T17:59:51;91.70;;;31.90;;
24030;SDS011;12240;51.142;22.486;2024-02-14T18:02:19;102.20;;;35.30;;
24030;SDS011;12240;51.142;22.486;2024-02-14T18:04:46;100.10;;;34.80;;
24030;SDS011;12240;51.142;22.486;2024-02-14T18:07:13;126.90;;;42.80;;
24030;SDS011;12240;51.142;22.486;2024-02-14T18:09:40;120.70;;;43.10;;
24030;SDS011;12240;51.142;22.486;2024-02-14T18:12:07;156.70;;;51.00;;
24030;SDS011;12240;51.142;22.486;2024-02-14T18:14:35;188.90;;;61.50;;
24030;SDS011;12240;51.142;22.486;2024-02-14T18:17:02;143.00;;;52.30;;
24030;SDS011;12240;51.142;22.486;2024-02-14T18:19:29;152.30;;;54.50;;
24030;SDS011;12240;51.142;22.486;2024-02-14T18:21:56;169.30;;;57.50;;
24030;SDS011;12240;51.142;22.486;2024-02-14T18:24:23;169.20;;;57.30;;
24030;SDS011;12240;51.142;22.486;2024-02-14T18:26:50;178.50;;;61.00;;
24030;SDS011;12240;51.142;22.486;2024-02-14T18:29:16;163.80;;;56.20;;
24030;SDS011;12240;51.142;22.486;2024-02-14T18:31:43;164.00;;;56.80;;
24030;SDS011;12240;51.142;22.486;2024-02-14T18:34:10;154.90;;;54.20;;
24030;SDS011;12240;51.142;22.486;2024-02-14T18:36:37;137.50;;;50.80;;
24030;SDS011;12240;51.142;22.486;2024-02-14T18:39:04;145.30;;;50.50;;
24030;SDS011;12240;51.142;22.486;2024-02-14T18:41:31;130.50;;;45.20;;
24030;SDS011;12240;51.142;22.486;2024-02-14T18:43:58;122.70;;;43.40;;
24030;SDS011;12240;51.142;22.486;2024-02-14T18:48:56;121.70;;;41.40;;
24030;SDS011;12240;51.142;22.486;2024-02-14T18:51:24;125.40;;;43.10;;
24030;SDS011;12240;51.142;22.486;2024-02-14T18:53:51;124.40;;;43.70;;
24030;SDS011;12240;51.142;22.486;2024-02-14T18:56:21;127.60;;;44.00;;
24030;SDS011;12240;51.142;22.486;2024-02-14T18:58:48;129.00;;;45.30;;
24030;SDS011;12240;51.142;22.486;2024-02-14T19:01:22;120.80;;;41.00;;
24030;SDS011;12240;51.142;22.486;2024-02-14T19:03:52;129.40;;;45.90;;
24030;SDS011;12240;51.142;22.486;2024-02-14T19:06:20;137.10;;;50.40;;
24030;SDS011;12240;51.142;22.486;2024-02-14T19:08:49;131.00;;;47.40;;
24030;SDS011;12240;51.142;22.486;2024-02-14T19:11:18;139.70;;;50.10;;
24030;SDS011;12240;51.142;22.486;2024-02-14T19:13:44;129.30;;;47.80;;
24030;SDS011;12240;51.142;22.486;2024-02-14T19:16:11;140.00;;;48.60;;
24030;SDS011;12240;51.142;22.486;2024-02-14T19:18:53;156.90;;;55.30;;
24030;SDS011;12240;51.142;22.486;2024-02-14T19:21:21;176.60;;;56.40;;
24030;SDS011;12240;51.142;22.486;2024-02-14T19:23:48;166.90;;;55.60;;
24030;SDS011;12240;51.142;22.486;2024-02-14T19:26:15;158.70;;;55.30;;
24030;SDS011;12240;51.142;22.486;2024-02-14T19:28:43;165.10;;;53.00;;
24030;SDS011;12240;51.142;22.486;2024-02-14T19:31:10;155.30;;;52.50;;
24030;SDS011;12240;51.142;22.486;2024-02-14T19:33:36;156.40;;;52.90;;
24030;SDS011;12240;51.142;22.486;2024-02-14T19:36:04;182.00;;;59.90;;
24030;SDS011;12240;51.142;22.486;2024-02-14T19:38:35;174.80;;;59.40;;
24030;SDS011;12240;51.142;22.486;2024-02-14T19:41:02;247.80;;;74.70;;
24030;SDS011;12240;51.142;22.486;2024-02-14T19:43:29;248.90;;;75.00;;
24030;SDS011;12240;51.142;22.486;2024-02-14T19:46:05;173.10;;;60.70;;
24030;SDS011;12240;51.142;22.486;2024-02-14T19:48:32;167.90;;;58.40;;
24030;SDS011;12240;51.142;22.486;2024-02-14T19:51:01;174.90;;;59.70;;
24030;SDS011;12240;51.142;22.486;2024-02-14T19:53:30;153.00;;;52.20;;
24030;SDS011;12240;51.142;22.486;2024-02-14T19:55:57;161.00;;;55.90;;
24030;SDS011;12240;51.142;22.486;2024-02-14T19:58:27;152.80;;;54.20;;
24030;SDS011;12240;51.142;22.486;2024-02-14T20:00:54;161.00;;;54.90;;
24030;SDS011;12240;51.142;22.486;2024-02-14T20:03:21;166.20;;;54.30;;
24030;SDS011;12240;51.142;22.486;2024-02-14T20:05:48;166.10;;;56.70;;
24030;SDS011;12240;51.142;22.486;2024-02-14T20:08:23;184.50;;;63.40;;
24030;SDS011;12240;51.142;22.486;2024-02-14T20:11:10;179.70;;;62.60;;
24030;SDS011;12240;51.142;22.486;2024-02-14T20:13:37;186.60;;;61.90;;
24030;SDS011;12240;51.142;22.486;2024-02-14T20:16:04;198.80;;;64.80;;
24030;SDS011;12240;51.142;22.486;2024-02-14T20:18:31;203.70;;;66.80;;
24030;SDS011;12240;51.142;22.486;2024-02-14T20:20:58;193.90;;;65.00;;
24030;SDS011;12240;51.142;22.486;2024-02-14T20:23:25;190.90;;;65.10;;
24030;SDS011;12240;51.142;22.486;2024-02-14T20:25:52;190.90;;;67.10;;
24030;SDS011;12240;51.142;22.486;2024-02-14T20:28:19;197.90;;;65.60;;
24030;SDS011;12240;51.142;22.486;2024-02-14T20:30:47;188.60;;;66.20;;
24030;SDS011;12240;51.142;22.486;2024-02-14T20:33:14;180.20;;;61.40;;
24030;SDS011;12240;51.142;22.486;2024-02-14T20:35:41;174.90;;;60.00;;
24030;SDS011;12240;51.142;22.486;2024-02-14T20:38:08;165.90;;;59.60;;
24030;SDS011;12240;51.142;22.486;2024-02-14T20:40:36;167.30;;;56.10;;
24030;SDS011;12240;51.142;22.486;2024-02-14T20:43:06;176.30;;;59.30;;
24030;SDS011;12240;51.142;22.486;2024-02-14T20:45:33;169.30;;;57.80;;
24030;SDS011;12240;51.142;22.486;2024-02-14T20:48:01;164.80;;;56.30;;
24030;SDS011;12240;51.142;22.486;2024-02-14T20:50:29;171.70;;;57.70;;
24030;SDS011;12240;51.142;22.486;2024-02-14T20:52:56;150.00;;;53.90;;
24030;SDS011;12240;51.142;22.486;2024-02-14T20:55:22;149.10;;;52.70;;
24030;SDS011;12240;51.142;22.486;2024-02-14T20:57:49;144.30;;;51.10;;
24030;SDS011;12240;51.142;22.486;2024-02-14T21:00:17;151.70;;;52.70;;
24030;SDS011;12240;51.142;22.486;2024-02-14T21:02:46;155.90;;;55.60;;
24030;SDS011;12240;51.142;22.486;2024-02-14T21:05:13;162.10;;;55.40;;
24030;SDS011;12240;51.142;22.486;2024-02-14T21:07:41;145.80;;;51.40;;
24030;SDS011;12240;51.142;22.486;2024-02-14T21:10:07;156.90;;;54.60;;
24030;SDS011;12240;51.142;22.486;2024-02-14T21:12:36;152.20;;;50.90;;
24030;SDS011;12240;51.142;22.486;2024-02-14T21:15:03;167.10;;;54.80;;
24030;SDS011;12240;51.142;22.486;2024-02-14T21:17:31;161.10;;;54.90;;
24030;SDS011;12240;51.142;22.486;2024-02-14T21:19:58;151.80;;;54.40;;
24030;SDS011;12240;51.142;22.486;2024-02-14T21:22:27;161.40;;;56.50;;
24030;SDS011;12240;51.142;22.486;2024-02-14T21:24:54;171.80;;;57.70;;
24030;SDS011;12240;51.142;22.486;2024-02-14T21:27:21;163.30;;;53.20;;
24030;SDS011;12240;51.142;22.486;2024-02-14T21:29:48;159.00;;;55.40;;
24030;SDS011;12240;51.142;22.486;2024-02-14T21:32:15;157.80;;;55.70;;
24030;SDS011;12240;51.142;22.486;2024-02-14T21:34:41;168.30;;;56.50;;
24030;SDS011;12240;51.142;22.486;2024-02-14T21:37:08;168.80;;;55.70;;
24030;SDS011;12240;51.142;22.486;2024-02-14T21:39:35;166.80;;;54.20;;
24030;SDS011;12240;51.142;22.486;2024-02-14T21:42:02;167.20;;;56.10;;
24030;SDS011;12240;51.142;22.486;2024-02-14T21:44:30;171.90;;;53.90;;
24030;SDS011;12240;51.142;22.486;2024-02-14T21:46:57;165.80;;;57.60;;
24030;SDS011;12240;51.142;22.486;2024-02-14T21:49:25;167.50;;;55.40;;
24030;SDS011;12240;51.142;22.486;2024-02-14T21:51:52;167.70;;;57.40;;
24030;SDS011;12240;51.142;22.486;2024-02-14T21:54:19;157.80;;;55.50;;
24030;SDS011;12240;51.142;22.486;2024-02-14T21:56:46;168.60;;;54.40;;
24030;SDS011;12240;51.142;22.486;2024-02-14T21:59:13;169.80;;;56.30;;
24030;SDS011;12240;51.142;22.486;2024-02-14T22:01:39;174.20;;;57.00;;
24030;SDS011;12240;51.142;22.486;2024-02-14T22:04:07;161.10;;;54.00;;
24030;SDS011;12240;51.142;22.486;2024-02-14T22:06:34;173.90;;;58.10;;
24030;SDS011;12240;51.142;22.486;2024-02-14T22:09:01;172.30;;;56.60;;
24030;SDS011;12240;51.142;22.486;2024-02-14T22:11:28;162.20;;;55.60;;
24030;SDS011;12240;51.142;22.486;2024-02-14T22:13:55;179.90;;;58.40;;
24030;SDS011;12240;51.142;22.486;2024-02-14T22:16:22;173.00;;;60.00;;
24030;SDS011;12240;51.142;22.486;2024-02-14T22:18:49;171.80;;;58.00;;
24030;SDS011;12240;51.142;22.486;2024-02-14T22:21:17;175.10;;;53.80;;
24030;SDS011;12240;51.142;22.486;2024-02-14T22:23:44;164.40;;;53.00;;
24030;SDS011;12240;51.142;22.486;2024-02-14T22:26:11;144.90;;;49.90;;